sensor_id;sensor_type;location;lat;lon;timestamp;P1;durP1;ratioP1;P2;durP2;ratioP2
78344;SDS011;67620;51.134;6.548;2023-07-16T00:00:13;5.15;;;4.65;;
78344;SDS011;67620;51.134;6.548;2023-07-16T00:02:40;5.35;;;4.85;;
78344;SDS011;67620;51.134;6.548;2023-07-16T00:05:06;4.88;;;4.47;;
78344;SDS011;67620;51.134;6.548;2023-07-16T00:07:32;4.50;;;4.10;;
78344;SDS011;67620;51.134;6.548;2023-07-16T00:09:57;5.20;;;4.70;;
78344;SDS011;67620;51.134;6.548;2023-07-16T00:12:23;4.95;;;4.55;;
78344;SDS011;67620;51.134;6.548;2023-07-16T00:14:48;4.88;;;4.47;;
78344;SDS011;67620;51.134;6.548;2023-07-16T00:17:14;4.50;;;4.10;;
78344;SDS011;67620;51.134;6.548;2023-07-16T00:19:39;5.35;;;4.90;;
78344;SDS011;67620;51.134;6.548;2023-07-16T00:22:05;4.80;;;4.40;;
78344;SDS011;67620;51.134;6.548;2023-07-16T00:24:30;5.13;;;4.68;;
78344;SDS011;67620;51.134;6.548;2023-07-16T00:26:56;4.88;;;4.47;;
78344;SDS011;67620;51.134;6.548;2023-07-16T00:29:22;4.88;;;4.47;;
78344;SDS011;67620;51.134;6.548;2023-07-16T00:31:48;4.88;;;4.47;;
78344;SDS011;67620;51.134;6.548;2023-07-16T00:34:13;4.72;;;4.32;;
78344;SDS011;67620;51.134;6.548;2023-07-16T00:36:39;4.60;;;4.20;;
78344;SDS011;67620;51.134;6.548;2023-07-16T00:39:05;4.55;;;4.15;;
78344;SDS011;67620;51.134;6.548;2023-07-16T00:41:30;4.43;;;4.03;;
78344;SDS011;67620;51.134;6.548;2023-07-16T00:43:56;4.70;;;4.30;;
78344;SDS011;67620;51.134;6.548;2023-07-16T00:46:21;4.85;;;4.45;;
78344;SDS011;67620;51.134;6.548;2023-07-16T00:48:48;5.22;;;4.72;;
78344;SDS011;67620;51.134;6.548;2023-07-16T00:51:14;4.47;;;4.07;;
78344;SDS011;67620;51.134;6.548;2023-07-16T00:53:41;4.45;;;4.05;;
78344;SDS011;67620;51.134;6.548;2023-07-16T00:56:07;4.60;;;4.20;;
78344;SDS011;67620;51.134;6.548;2023-07-16T00:58:34;3.92;;;3.60;;
78344;SDS011;67620;51.134;6.548;2023-07-16T01:00:59;4.68;;;4.28;;
78344;SDS011;67620;51.134;6.548;2023-07-16T01:03:25;4.78;;;4.38;;
78344;SDS011;67620;51.134;6.548;2023-07-16T01:06:00;4.72;;;4.32;;
78344;SDS011;67620;51.134;6.548;2023-07-16T01:08:45;5.28;;;4.78;;
78344;SDS011;67620;51.134;6.548;2023-07-16T01:11:14;4.82;;;4.43;;
78344;SDS011;67620;51.134;6.548;2023-07-16T01:13:40;5.40;;;4.90;;
78344;SDS011;67620;51.134;6.548;2023-07-16T01:16:06;4.68;;;4.28;;
78344;SDS011;67620;51.134;6.548;2023-07-16T01:18:31;4.57;;;4.18;;
78344;SDS011;67620;51.134;6.548;2023-07-16T01:20:57;4.28;;;3.88;;
78344;SDS011;67620;51.134;6.548;2023-07-16T01:26:08;4.38;;;3.97;;
78344;SDS011;67620;51.134;6.548;2023-07-16T01:29:10;4.47;;;4.07;;
78344;SDS011;67620;51.134;6.548;2023-07-16T01:31:51;4.20;;;3.90;;
78344;SDS011;67620;51.134;6.548;2023-07-16T01:34:19;4.60;;;4.20;;
78344;SDS011;67620;51.134;6.548;2023-07-16T01:36:46;4.68;;;4.28;;
78344;SDS011;67620;51.134;6.548;2023-07-16T01:39:12;4.15;;;3.85;;
78344;SDS011;67620;51.134;6.548;2023-07-16T01:41:39;4.57;;;4.18;;
78344;SDS011;67620;51.134;6.548;2023-07-16T01:44:04;4.60;;;4.20;;
78344;SDS011;67620;51.134;6.548;2023-07-16T01:46:30;4.60;;;4.20;;
78344;SDS011;67620;51.134;6.548;2023-07-16T01:48:55;4.60;;;4.20;;
78344;SDS011;67620;51.134;6.548;2023-07-16T01:51:21;4.50;;;4.10;;
78344;SDS011;67620;51.134;6.548;2023-07-16T01:53:47;4.10;;;3.80;;
78344;SDS011;67620;51.134;6.548;2023-07-16T01:56:12;4.43;;;4.03;;
78344;SDS011;67620;51.134;6.548;2023-07-16T01:58:38;4.75;;;4.35;;
78344;SDS011;67620;51.134;6.548;2023-07-16T02:01:03;4.63;;;4.22;;
78344;SDS011;67620;51.134;6.548;2023-07-16T02:03:29;4.70;;;4.30;;
78344;SDS011;67620;51.134;6.548;2023-07-16T02:05:54;4.40;;;4.00;;
78344;SDS011;67620;51.134;6.548;2023-07-16T02:08:20;3.80;;;3.50;;
78344;SDS011;67620;51.134;6.548;2023-07-16T02:10:48;4.50;;;4.10;;
78344;SDS011;67620;51.134;6.548;2023-07-16T02:13:14;4.57;;;4.18;;
78344;SDS011;67620;51.134;6.548;2023-07-16T02:15:40;4.15;;;3.85;;
78344;SDS011;67620;51.134;6.548;2023-07-16T02:18:05;5.10;;;4.63;;
78344;SDS011;67620;51.134;6.548;2023-07-16T02:20:31;4.57;;;4.18;;
78344;SDS011;67620;51.134;6.548;2023-07-16T02:22:57;4.43;;;4.03;;
78344;SDS011;67620;51.134;6.548;2023-07-16T02:25:22;4.43;;;4.03;;
78344;SDS011;67620;51.134;6.548;2023-07-16T02:27:48;4.50;;;4.10;;
78344;SDS011;67620;51.134;6.548;2023-07-16T02:30:14;4.70;;;4.30;;
78344;SDS011;67620;51.134;6.548;2023-07-16T02:32:40;4.25;;;3.95;;
78344;SDS011;67620;51.134;6.548;2023-07-16T02:35:05;3.92;;;3.55;;
78344;SDS011;67620;51.134;6.548;2023-07-16T02:37:32;4.25;;;3.90;;
78344;SDS011;67620;51.134;6.548;2023-07-16T02:39:58;4.55;;;4.15;;
78344;SDS011;67620;51.134;6.548;2023-07-16T02:42:24;4.20;;;3.90;;
78344;SDS011;67620;51.134;6.548;2023-07-16T02:44:49;4.20;;;3.90;;
78344;SDS011;67620;51.134;6.548;2023-07-16T02:47:15;4.65;;;4.25;;
78344;SDS011;67620;51.134;6.548;2023-07-16T02:49:40;4.60;;;4.20;;
78344;SDS011;67620;51.134;6.548;2023-07-16T02:52:06;3.70;;;3.40;;
78344;SDS011;67620;51.134;6.548;2023-07-16T02:54:32;4.80;;;4.40;;
78344;SDS011;67620;51.134;6.548;2023-07-16T02:56:58;3.97;;;3.58;;
78344;SDS011;67620;51.134;6.548;2023-07-16T02:59:23;4.15;;;3.75;;
78344;SDS011;67620;51.134;6.548;2023-07-16T03:01:49;4.28;;;3.83;;
78344;SDS011;67620;51.134;6.548;2023-07-16T03:04:14;4.10;;;3.80;;
78344;SDS011;67620;51.134;6.548;2023-07-16T03:06:40;4.05;;;3.75;;
78344;SDS011;67620;51.134;6.548;2023-07-16T03:09:05;4.50;;;4.10;;
78344;SDS011;67620;51.134;6.548;2023-07-16T03:11:31;4.32;;;3.92;;
78344;SDS011;67620;51.134;6.548;2023-07-16T03:13:56;4.00;;;3.70;;
78344;SDS011;67620;51.134;6.548;2023-07-16T03:16:22;4.45;;;4.05;;
78344;SDS011;67620;51.134;6.548;2023-07-16T03:18:47;4.80;;;4.40;;
78344;SDS011;67620;51.134;6.548;2023-07-16T03:21:13;4.45;;;4.05;;
78344;SDS011;67620;51.134;6.548;2023-07-16T03:23:39;3.97;;;3.60;;
78344;SDS011;67620;51.134;6.548;2023-07-16T03:26:04;3.65;;;3.35;;
78344;SDS011;67620;51.134;6.548;2023-07-16T03:28:30;4.10;;;3.78;;
78344;SDS011;67620;51.134;6.548;2023-07-16T03:30:56;4.45;;;4.05;;
78344;SDS011;67620;51.134;6.548;2023-07-16T03:33:22;3.90;;;3.60;;
78344;SDS011;67620;51.134;6.548;2023-07-16T03:35:48;4.30;;;3.90;;
78344;SDS011;67620;51.134;6.548;2023-07-16T03:38:14;3.88;;;3.58;;
78344;SDS011;67620;51.134;6.548;2023-07-16T03:40:41;4.25;;;3.95;;
78344;SDS011;67620;51.134;6.548;2023-07-16T03:43:07;3.83;;;3.53;;
78344;SDS011;67620;51.134;6.548;2023-07-16T03:45:33;4.00;;;3.70;;
78344;SDS011;67620;51.134;6.548;2023-07-16T03:47:58;3.80;;;3.47;;
78344;SDS011;67620;51.134;6.548;2023-07-16T03:50:24;3.80;;;3.50;;
78344;SDS011;67620;51.134;6.548;2023-07-16T03:52:49;3.78;;;3.47;;
78344;SDS011;67620;51.134;6.548;2023-07-16T03:55:15;4.32;;;3.92;;
78344;SDS011;67620;51.134;6.548;2023-07-16T03:57:41;4.47;;;4.10;;
78344;SDS011;67620;51.134;6.548;2023-07-16T04:00:07;4.32;;;3.80;;
78344;SDS011;67620;51.134;6.548;2023-07-16T04:02:34;4.15;;;3.75;;
78344;SDS011;67620;51.134;6.548;2023-07-16T04:05:00;3.90;;;3.60;;
78344;SDS011;67620;51.134;6.548;2023-07-16T04:07:25;3.80;;;3.50;;
78344;SDS011;67620;51.134;6.548;2023-07-16T04:09:51;3.90;;;3.53;;
78344;SDS011;67620;51.134;6.548;2023-07-16T04:12:16;3.97;;;3.67;;
78344;SDS011;67620;51.134;6.548;2023-07-16T04:14:42;3.88;;;3.58;;
78344;SDS011;67620;51.134;6.548;2023-07-16T04:17:08;3.80;;;3.50;;
78344;SDS011;67620;51.134;6.548;2023-07-16T04:19:33;4.07;;;3.78;;
78344;SDS011;67620;51.134;6.548;2023-07-16T04:21:59;3.70;;;3.40;;
78344;SDS011;67620;51.134;6.548;2023-07-16T04:24:25;3.97;;;3.67;;
78344;SDS011;67620;51.134;6.548;2023-07-16T04:26:51;4.03;;;3.53;;
78344;SDS011;67620;51.134;6.548;2023-07-16T04:29:18;3.88;;;3.58;;
78344;SDS011;67620;51.134;6.548;2023-07-16T04:31:43;3.90;;;3.50;;
78344;SDS011;67620;51.134;6.548;2023-07-16T04:34:08;4.10;;;3.80;;
78344;SDS011;67620;51.134;6.548;2023-07-16T04:36:34;3.88;;;3.58;;
78344;SDS011;67620;51.134;6.548;2023-07-16T04:38:59;3.90;;;3.60;;
78344;SDS011;67620;51.134;6.548;2023-07-16T04:41:25;4.05;;;3.72;;
78344;SDS011;67620;51.134;6.548;2023-07-16T04:43:50;3.70;;;3.40;;
78344;SDS011;67620;51.134;6.548;2023-07-16T04:46:16;4.00;;;3.60;;
78344;SDS011;67620;51.134;6.548;2023-07-16T04:48:42;3.78;;;3.47;;
78344;SDS011;67620;51.134;6.548;2023-07-16T04:51:07;3.58;;;3.28;;
78344;SDS011;67620;51.134;6.548;2023-07-16T04:53:32;3.63;;;3.33;;
78344;SDS011;67620;51.134;6.548;2023-07-16T04:55:58;3.75;;;3.45;;
78344;SDS011;67620;51.134;6.548;2023-07-16T04:58:23;3.60;;;3.30;;
78344;SDS011;67620;51.134;6.548;2023-07-16T05:00:49;3.83;;;3.42;;
78344;SDS011;67620;51.134;6.548;2023-07-16T05:03:14;3.60;;;3.30;;
78344;SDS011;67620;51.134;6.548;2023-07-16T05:05:40;4.22;;;3.83;;
78344;SDS011;67620;51.134;6.548;2023-07-16T05:08:05;3.78;;;3.47;;
78344;SDS011;67620;51.134;6.548;2023-07-16T05:10:31;3.60;;;3.30;;
78344;SDS011;67620;51.134;6.548;2023-07-16T05:12:57;3.70;;;3.40;;
78344;SDS011;67620;51.134;6.548;2023-07-16T05:15:23;3.60;;;3.30;;
78344;SDS011;67620;51.134;6.548;2023-07-16T05:17:48;3.83;;;3.53;;
78344;SDS011;67620;51.134;6.548;2023-07-16T05:20:13;3.67;;;3.38;;
78344;SDS011;67620;51.134;6.548;2023-07-16T05:22:39;3.38;;;3.08;;
78344;SDS011;67620;51.134;6.548;2023-07-16T05:25:05;3.60;;;3.30;;
78344;SDS011;67620;51.134;6.548;2023-07-16T05:27:30;3.67;;;3.38;;
78344;SDS011;67620;51.134;6.548;2023-07-16T05:29:56;3.70;;;3.38;;
78344;SDS011;67620;51.134;6.548;2023-07-16T05:32:21;3.63;;;3.33;;
78344;SDS011;67620;51.134;6.548;2023-07-16T05:34:47;3.22;;;2.92;;
78344;SDS011;67620;51.134;6.548;2023-07-16T05:37:13;3.67;;;3.38;;
78344;SDS011;67620;51.134;6.548;2023-07-16T05:39:38;3.70;;;3.40;;
78344;SDS011;67620;51.134;6.548;2023-07-16T05:42:04;3.40;;;3.10;;
78344;SDS011;67620;51.134;6.548;2023-07-16T05:44:30;3.83;;;3.50;;
78344;SDS011;67620;51.134;6.548;2023-07-16T05:46:56;3.70;;;3.38;;
78344;SDS011;67620;51.134;6.548;2023-07-16T05:49:22;3.65;;;3.35;;
78344;SDS011;67620;51.134;6.548;2023-07-16T05:51:48;3.67;;;3.38;;
78344;SDS011;67620;51.134;6.548;2023-07-16T05:54:13;3.70;;;3.40;;
78344;SDS011;67620;51.134;6.548;2023-07-16T05:56:39;3.72;;;3.42;;
78344;SDS011;67620;51.134;6.548;2023-07-16T05:59:04;3.42;;;3.13;;
78344;SDS011;67620;51.134;6.548;2023-07-16T06:01:30;3.30;;;3.00;;
78344;SDS011;67620;51.134;6.548;2023-07-16T06:03:55;3.80;;;3.50;;
78344;SDS011;67620;51.134;6.548;2023-07-16T06:06:21;3.72;;;3.42;;
78344;SDS011;67620;51.134;6.548;2023-07-16T06:08:46;3.38;;;3.08;;
78344;SDS011;67620;51.134;6.548;2023-07-16T06:11:13;3.25;;;2.95;;
78344;SDS011;67620;51.134;6.548;2023-07-16T06:13:39;3.13;;;2.92;;
78344;SDS011;67620;51.134;6.548;2023-07-16T06:16:04;3.50;;;3.20;;
78344;SDS011;67620;51.134;6.548;2023-07-16T06:18:30;3.28;;;3.00;;
78344;SDS011;67620;51.134;6.548;2023-07-16T06:20:56;3.40;;;3.10;;
78344;SDS011;67620;51.134;6.548;2023-07-16T06:23:21;3.60;;;3.30;;
78344;SDS011;67620;51.134;6.548;2023-07-16T06:25:47;3.70;;;3.40;;
78344;SDS011;67620;51.134;6.548;2023-07-16T06:28:14;3.33;;;3.03;;
78344;SDS011;67620;51.134;6.548;2023-07-16T06:30:39;3.97;;;3.58;;
78344;SDS011;67620;51.134;6.548;2023-07-16T06:33:05;3.72;;;3.42;;
78344;SDS011;67620;51.134;6.548;2023-07-16T06:35:31;3.28;;;2.97;;
78344;SDS011;67620;51.134;6.548;2023-07-16T06:37:57;3.50;;;3.20;;
78344;SDS011;67620;51.134;6.548;2023-07-16T06:40:23;3.40;;;3.10;;
78344;SDS011;67620;51.134;6.548;2023-07-16T06:42:49;3.20;;;2.90;;
78344;SDS011;67620;51.134;6.548;2023-07-16T06:45:17;3.55;;;3.25;;
78344;SDS011;67620;51.134;6.548;2023-07-16T06:47:42;3.60;;;3.30;;
78344;SDS011;67620;51.134;6.548;2023-07-16T06:50:09;3.35;;;3.05;;
78344;SDS011;67620;51.134;6.548;2023-07-16T06:52:35;3.70;;;3.40;;
78344;SDS011;67620;51.134;6.548;2023-07-16T06:55:00;2.95;;;2.75;;
78344;SDS011;67620;51.134;6.548;2023-07-16T06:57:27;3.83;;;3.42;;
78344;SDS011;67620;51.134;6.548;2023-07-16T06:59:52;3.10;;;2.90;;
78344;SDS011;67620;51.134;6.548;2023-07-16T07:02:18;3.38;;;3.08;;
78344;SDS011;67620;51.134;6.548;2023-07-16T07:04:45;3.40;;;3.10;;
78344;SDS011;67620;51.134;6.548;2023-07-16T07:07:10;3.50;;;3.15;;
78344;SDS011;67620;51.134;6.548;2023-07-16T07:09:36;3.42;;;3.13;;
78344;SDS011;67620;51.134;6.548;2023-07-16T07:12:01;3.35;;;3.03;;
78344;SDS011;67620;51.134;6.548;2023-07-16T07:14:27;3.33;;;3.03;;
78344;SDS011;67620;51.134;6.548;2023-07-16T07:16:53;3.33;;;3.03;;
78344;SDS011;67620;51.134;6.548;2023-07-16T07:19:18;3.25;;;2.95;;
78344;SDS011;67620;51.134;6.548;2023-07-16T07:21:44;3.25;;;2.97;;
78344;SDS011;67620;51.134;6.548;2023-07-16T07:24:10;3.28;;;2.97;;
78344;SDS011;67620;51.134;6.548;2023-07-16T07:26:35;3.28;;;2.97;;
78344;SDS011;67620;51.134;6.548;2023-07-16T07:29:01;3.38;;;3.08;;
78344;SDS011;67620;51.134;6.548;2023-07-16T07:31:26;3.22;;;2.92;;
78344;SDS011;67620;51.134;6.548;2023-07-16T07:33:52;3.20;;;2.90;;
78344;SDS011;67620;51.134;6.548;2023-07-16T07:36:18;3.40;;;3.10;;
78344;SDS011;67620;51.134;6.548;2023-07-16T07:38:44;3.33;;;3.03;;
78344;SDS011;67620;51.134;6.548;2023-07-16T07:41:10;3.33;;;3.03;;
78344;SDS011;67620;51.134;6.548;2023-07-16T07:43:35;3.30;;;3.00;;
78344;SDS011;67620;51.134;6.548;2023-07-16T07:46:01;3.42;;;3.13;;
78344;SDS011;67620;51.134;6.548;2023-07-16T07:48:27;3.55;;;3.25;;
78344;SDS011;67620;51.134;6.548;2023-07-16T07:50:52;3.42;;;3.13;;
78344;SDS011;67620;51.134;6.548;2023-07-16T07:53:18;3.58;;;3.28;;
78344;SDS011;67620;51.134;6.548;2023-07-16T07:55:44;3.25;;;2.95;;
78344;SDS011;67620;51.134;6.548;2023-07-16T07:58:10;3.38;;;3.08;;
78344;SDS011;67620;51.134;6.548;2023-07-16T08:00:35;3.22;;;2.92;;
78344;SDS011;67620;51.134;6.548;2023-07-16T08:03:01;3.35;;;3.05;;
78344;SDS011;67620;51.134;6.548;2023-07-16T08:05:26;3.47;;;3.17;;
78344;SDS011;67620;51.134;6.548;2023-07-16T08:07:52;3.28;;;2.97;;
78344;SDS011;67620;51.134;6.548;2023-07-16T08:10:18;3.40;;;3.10;;
78344;SDS011;67620;51.134;6.548;2023-07-16T08:12:44;3.25;;;2.95;;
78344;SDS011;67620;51.134;6.548;2023-07-16T08:15:10;2.95;;;2.65;;
78344;SDS011;67620;51.134;6.548;2023-07-16T08:17:40;3.13;;;2.83;;
78344;SDS011;67620;51.134;6.548;2023-07-16T08:20:06;2.92;;;2.72;;
78344;SDS011;67620;51.134;6.548;2023-07-16T08:22:33;3.38;;;3.08;;
78344;SDS011;67620;51.134;6.548;2023-07-16T08:24:58;3.15;;;2.85;;
78344;SDS011;67620;51.134;6.548;2023-07-16T08:27:23;3.22;;;2.92;;
78344;SDS011;67620;51.134;6.548;2023-07-16T08:29:49;3.00;;;2.75;;
78344;SDS011;67620;51.134;6.548;2023-07-16T08:32:15;3.65;;;3.35;;
78344;SDS011;67620;51.134;6.548;2023-07-16T08:34:40;3.33;;;3.03;;
78344;SDS011;67620;51.134;6.548;2023-07-16T08:37:06;3.20;;;2.90;;
78344;SDS011;67620;51.134;6.548;2023-07-16T08:39:31;3.10;;;2.80;;
78344;SDS011;67620;51.134;6.548;2023-07-16T08:41:57;3.10;;;2.80;;
78344;SDS011;67620;51.134;6.548;2023-07-16T08:44:23;2.88;;;2.67;;
78344;SDS011;67620;51.134;6.548;2023-07-16T08:46:49;3.33;;;2.92;;
78344;SDS011;67620;51.134;6.548;2023-07-16T08:49:17;2.92;;;2.72;;
78344;SDS011;67620;51.134;6.548;2023-07-16T08:51:49;3.15;;;2.83;;
78344;SDS011;67620;51.134;6.548;2023-07-16T08:54:15;3.22;;;2.92;;
78344;SDS011;67620;51.134;6.548;2023-07-16T08:56:43;3.13;;;2.83;;
78344;SDS011;67620;51.134;6.548;2023-07-16T08:59:08;3.20;;;2.83;;
78344;SDS011;67620;51.134;6.548;2023-07-16T09:01:35;3.10;;;2.80;;
78344;SDS011;67620;51.134;6.548;2023-07-16T09:04:04;3.10;;;2.80;;
78344;SDS011;67620;51.134;6.548;2023-07-16T09:06:30;2.80;;;2.60;;
78344;SDS011;67620;51.134;6.548;2023-07-16T09:08:55;3.20;;;2.90;;
78344;SDS011;67620;51.134;6.548;2023-07-16T09:11:21;2.97;;;2.72;;
78344;SDS011;67620;51.134;6.548;2023-07-16T09:13:47;3.33;;;3.03;;
78344;SDS011;67620;51.134;6.548;2023-07-16T09:16:13;2.85;;;2.65;;
78344;SDS011;67620;51.134;6.548;2023-07-16T09:18:41;2.88;;;2.67;;
78344;SDS011;67620;51.134;6.548;2023-07-16T09:21:08;3.08;;;2.78;;
78344;SDS011;67620;51.134;6.548;2023-07-16T09:23:34;3.20;;;2.90;;
78344;SDS011;67620;51.134;6.548;2023-07-16T09:25:59;3.22;;;2.92;;
78344;SDS011;67620;51.134;6.548;2023-07-16T09:28:25;3.35;;;3.05;;
78344;SDS011;67620;51.134;6.548;2023-07-16T09:30:51;3.08;;;2.78;;
78344;SDS011;67620;51.134;6.548;2023-07-16T09:33:18;2.70;;;2.50;;
78344;SDS011;67620;51.134;6.548;2023-07-16T09:35:47;3.20;;;2.90;;
78344;SDS011;67620;51.134;6.548;2023-07-16T09:38:14;3.08;;;2.83;;
78344;SDS011;67620;51.134;6.548;2023-07-16T09:40:40;3.00;;;2.55;;
78344;SDS011;67620;51.134;6.548;2023-07-16T09:43:07;3.38;;;3.08;;
78344;SDS011;67620;51.134;6.548;2023-07-16T09:45:34;2.97;;;2.78;;
78344;SDS011;67620;51.134;6.548;2023-07-16T09:48:00;2.95;;;2.67;;
78344;SDS011;67620;51.134;6.548;2023-07-16T09:50:29;3.13;;;2.83;;
78344;SDS011;67620;51.134;6.548;2023-07-16T09:52:57;2.88;;;2.67;;
78344;SDS011;67620;51.134;6.548;2023-07-16T09:55:23;2.90;;;2.70;;
78344;SDS011;67620;51.134;6.548;2023-07-16T09:57:50;3.13;;;2.88;;
78344;SDS011;67620;51.134;6.548;2023-07-16T10:00:20;2.95;;;2.67;;
78344;SDS011;67620;51.134;6.548;2023-07-16T10:02:47;2.65;;;2.38;;
78344;SDS011;67620;51.134;6.548;2023-07-16T10:05:18;3.25;;;2.83;;
78344;SDS011;67620;51.134;6.548;2023-07-16T10:07:51;2.97;;;2.78;;
78344;SDS011;67620;51.134;6.548;2023-07-16T10:10:18;2.80;;;2.60;;
78344;SDS011;67620;51.134;6.548;2023-07-16T10:12:55;2.90;;;2.70;;
78344;SDS011;67620;51.134;6.548;2023-07-16T10:15:27;2.70;;;2.50;;
78344;SDS011;67620;51.134;6.548;2023-07-16T10:17:53;2.65;;;2.45;;
78344;SDS011;67620;51.134;6.548;2023-07-16T10:22:55;3.25;;;2.95;;
78344;SDS011;67620;51.134;6.548;2023-07-16T10:27:47;2.83;;;2.50;;
78344;SDS011;67620;51.134;6.548;2023-07-16T10:30:14;3.00;;;2.72;;
78344;SDS011;67620;51.134;6.548;2023-07-16T10:32:40;2.78;;;2.58;;
78344;SDS011;67620;51.134;6.548;2023-07-16T10:35:06;2.97;;;2.67;;
78344;SDS011;67620;51.134;6.548;2023-07-16T10:37:33;2.97;;;2.78;;
78344;SDS011;67620;51.134;6.548;2023-07-16T10:40:00;3.00;;;2.75;;
78344;SDS011;67620;51.134;6.548;2023-07-16T10:42:30;2.83;;;2.60;;
78344;SDS011;67620;51.134;6.548;2023-07-16T10:45:03;2.83;;;2.47;;
78344;SDS011;67620;51.134;6.548;2023-07-16T10:47:33;2.92;;;2.63;;
78344;SDS011;67620;51.134;6.548;2023-07-16T10:50:03;2.55;;;2.35;;
78344;SDS011;67620;51.134;6.548;2023-07-16T10:52:33;2.85;;;2.58;;
78344;SDS011;67620;51.134;6.548;2023-07-16T10:54:59;2.63;;;2.42;;
78344;SDS011;67620;51.134;6.548;2023-07-16T10:57:25;2.80;;;2.60;;
78344;SDS011;67620;51.134;6.548;2023-07-16T10:59:51;2.80;;;2.60;;
78344;SDS011;67620;51.134;6.548;2023-07-16T11:02:18;2.83;;;2.63;;
78344;SDS011;67620;51.134;6.548;2023-07-16T11:04:45;2.70;;;2.50;;
78344;SDS011;67620;51.134;6.548;2023-07-16T11:07:12;2.95;;;2.72;;
78344;SDS011;67620;51.134;6.548;2023-07-16T11:09:51;2.80;;;2.60;;
78344;SDS011;67620;51.134;6.548;2023-07-16T11:12:20;3.25;;;2.50;;
78344;SDS011;67620;51.134;6.548;2023-07-16T11:14:47;2.65;;;2.45;;
78344;SDS011;67620;51.134;6.548;2023-07-16T11:17:14;2.75;;;2.55;;
78344;SDS011;67620;51.134;6.548;2023-07-16T11:19:40;2.55;;;2.35;;
78344;SDS011;67620;51.134;6.548;2023-07-16T11:22:10;2.78;;;2.50;;
78344;SDS011;67620;51.134;6.548;2023-07-16T11:24:39;2.80;;;2.60;;
78344;SDS011;67620;51.134;6.548;2023-07-16T11:27:12;2.95;;;2.60;;
78344;SDS011;67620;51.134;6.548;2023-07-16T11:29:55;2.90;;;2.60;;
78344;SDS011;67620;51.134;6.548;2023-07-16T11:32:29;3.03;;;2.70;;
78344;SDS011;67620;51.134;6.548;2023-07-16T11:34:59;2.95;;;2.65;;
78344;SDS011;67620;51.134;6.548;2023-07-16T11:37:27;2.95;;;2.65;;
78344;SDS011;67620;51.134;6.548;2023-07-16T11:39:55;2.88;;;2.60;;
78344;SDS011;67620;51.134;6.548;2023-07-16T11:42:34;2.70;;;2.50;;
78344;SDS011;67620;51.134;6.548;2023-07-16T11:45:02;2.47;;;2.28;;
78344;SDS011;67620;51.134;6.548;2023-07-16T11:47:28;2.67;;;2.40;;
78344;SDS011;67620;51.134;6.548;2023-07-16T11:49:54;2.55;;;2.35;;
78344;SDS011;67620;51.134;6.548;2023-07-16T11:52:25;2.83;;;2.40;;
78344;SDS011;67620;51.134;6.548;2023-07-16T11:54:52;2.67;;;2.45;;
78344;SDS011;67620;51.134;6.548;2023-07-16T11:57:18;2.30;;;2.10;;
78344;SDS011;67620;51.134;6.548;2023-07-16T11:59:44;2.60;;;2.40;;
78344;SDS011;67620;51.134;6.548;2023-07-16T12:02:09;2.58;;;2.38;;
78344;SDS011;67620;51.134;6.548;2023-07-16T12:04:35;2.50;;;2.30;;
78344;SDS011;67620;51.134;6.548;2023-07-16T12:07:00;2.50;;;2.30;;
78344;SDS011;67620;51.134;6.548;2023-07-16T12:09:26;2.65;;;2.45;;
78344;SDS011;67620;51.134;6.548;2023-07-16T12:11:52;2.60;;;2.40;;
78344;SDS011;67620;51.134;6.548;2023-07-16T12:14:17;2.67;;;2.47;;
78344;SDS011;67620;51.134;6.548;2023-07-16T12:16:43;2.55;;;2.30;;
78344;SDS011;67620;51.134;6.548;2023-07-16T12:19:08;2.67;;;2.40;;
78344;SDS011;67620;51.134;6.548;2023-07-16T12:21:34;2.70;;;2.50;;
78344;SDS011;67620;51.134;6.548;2023-07-16T12:24:00;2.45;;;2.10;;
78344;SDS011;67620;51.134;6.548;2023-07-16T12:26:25;2.45;;;2.25;;
78344;SDS011;67620;51.134;6.548;2023-07-16T12:28:51;2.60;;;2.40;;
78344;SDS011;67620;51.134;6.548;2023-07-16T12:31:17;2.40;;;2.20;;
78344;SDS011;67620;51.134;6.548;2023-07-16T12:33:43;3.03;;;2.72;;
78344;SDS011;67620;51.134;6.548;2023-07-16T12:36:08;2.53;;;2.28;;
78344;SDS011;67620;51.134;6.548;2023-07-16T12:38:34;2.80;;;2.50;;
78344;SDS011;67620;51.134;6.548;2023-07-16T12:40:59;2.40;;;2.20;;
78344;SDS011;67620;51.134;6.548;2023-07-16T12:43:25;2.53;;;2.10;;
78344;SDS011;67620;51.134;6.548;2023-07-16T12:45:51;2.47;;;2.25;;
78344;SDS011;67620;51.134;6.548;2023-07-16T12:48:16;2.83;;;2.58;;
78344;SDS011;67620;51.134;6.548;2023-07-16T12:50:42;2.72;;;2.47;;
78344;SDS011;67620;51.134;6.548;2023-07-16T12:53:07;2.72;;;2.35;;
78344;SDS011;67620;51.134;6.548;2023-07-16T12:55:33;2.45;;;2.25;;
78344;SDS011;67620;51.134;6.548;2023-07-16T12:57:59;2.53;;;2.20;;
78344;SDS011;67620;51.134;6.548;2023-07-16T13:00:24;2.58;;;2.38;;
78344;SDS011;67620;51.134;6.548;2023-07-16T13:02:50;2.60;;;2.40;;
78344;SDS011;67620;51.134;6.548;2023-07-16T13:05:15;2.50;;;2.13;;
78344;SDS011;67620;51.134;6.548;2023-07-16T13:07:41;2.17;;;1.98;;
78344;SDS011;67620;51.134;6.548;2023-07-16T13:10:07;2.25;;;2.05;;
78344;SDS011;67620;51.134;6.548;2023-07-16T13:12:33;2.17;;;1.98;;
78344;SDS011;67620;51.134;6.548;2023-07-16T13:14:59;2.40;;;2.20;;
78344;SDS011;67620;51.134;6.548;2023-07-16T13:17:24;2.50;;;2.30;;
78344;SDS011;67620;51.134;6.548;2023-07-16T13:19:50;2.50;;;2.30;;
78344;SDS011;67620;51.134;6.548;2023-07-16T13:22:15;2.45;;;2.25;;
78344;SDS011;67620;51.134;6.548;2023-07-16T13:24:40;2.55;;;2.35;;
78344;SDS011;67620;51.134;6.548;2023-07-16T13:27:06;2.65;;;2.42;;
78344;SDS011;67620;51.134;6.548;2023-07-16T13:29:32;2.58;;;2.38;;
78344;SDS011;67620;51.134;6.548;2023-07-16T13:31:57;2.47;;;2.20;;
78344;SDS011;67620;51.134;6.548;2023-07-16T13:34:23;8.25;;;7.00;;
78344;SDS011;67620;51.134;6.548;2023-07-16T13:36:48;6.45;;;5.38;;
78344;SDS011;67620;51.134;6.548;2023-07-16T13:39:13;13.43;;;12.10;;
78344;SDS011;67620;51.134;6.548;2023-07-16T13:41:39;22.95;;;20.70;;
78344;SDS011;67620;51.134;6.548;2023-07-16T13:44:04;26.63;;;23.83;;
78344;SDS011;67620;51.134;6.548;2023-07-16T13:46:30;36.55;;;32.75;;
78344;SDS011;67620;51.134;6.548;2023-07-16T13:48:56;36.78;;;32.78;;
78344;SDS011;67620;51.134;6.548;2023-07-16T13:51:22;39.83;;;34.47;;
78344;SDS011;67620;51.134;6.548;2023-07-16T13:53:47;38.60;;;34.50;;
78344;SDS011;67620;51.134;6.548;2023-07-16T13:56:13;35.15;;;31.38;;
78344;SDS011;67620;51.134;6.548;2023-07-16T13:58:38;22.35;;;19.95;;
78344;SDS011;67620;51.134;6.548;2023-07-16T14:01:04;20.38;;;18.35;;
78344;SDS011;67620;51.134;6.548;2023-07-16T14:03:29;20.88;;;18.67;;
78344;SDS011;67620;51.134;6.548;2023-07-16T14:05:55;19.63;;;17.70;;
78344;SDS011;67620;51.134;6.548;2023-07-16T14:08:21;21.05;;;18.85;;
78344;SDS011;67620;51.134;6.548;2023-07-16T14:10:46;21.00;;;18.83;;
78344;SDS011;67620;51.134;6.548;2023-07-16T14:13:12;20.85;;;18.70;;
78344;SDS011;67620;51.134;6.548;2023-07-16T14:15:37;19.65;;;17.50;;
78344;SDS011;67620;51.134;6.548;2023-07-16T14:18:03;20.63;;;18.63;;
78344;SDS011;67620;51.134;6.548;2023-07-16T14:20:28;20.90;;;18.75;;
78344;SDS011;67620;51.134;6.548;2023-07-16T14:22:54;19.48;;;17.38;;
78344;SDS011;67620;51.134;6.548;2023-07-16T14:25:20;19.55;;;17.55;;
78344;SDS011;67620;51.134;6.548;2023-07-16T14:27:45;20.00;;;17.95;;
78344;SDS011;67620;51.134;6.548;2023-07-16T14:30:12;17.20;;;15.50;;
78344;SDS011;67620;51.134;6.548;2023-07-16T14:32:38;17.88;;;15.02;;
78344;SDS011;67620;51.134;6.548;2023-07-16T14:35:03;16.77;;;14.65;;
78344;SDS011;67620;51.134;6.548;2023-07-16T14:37:29;16.92;;;15.13;;
78344;SDS011;67620;51.134;6.548;2023-07-16T14:39:55;18.15;;;14.73;;
78344;SDS011;67620;51.134;6.548;2023-07-16T14:42:20;16.33;;;14.57;;
78344;SDS011;67620;51.134;6.548;2023-07-16T14:44:46;16.58;;;14.88;;
78344;SDS011;67620;51.134;6.548;2023-07-16T14:47:12;16.48;;;14.77;;